tititudorancea.com
Station Historical Data
Daily Summary for October 18, 2018 Units:  Metric    English   Both
« Previous Day
Next Day »
Daily Weekly Monthly Yearly Custom
  High: Low: Average:
Temperature: -17.8 °C 10.9 °C 13.5 °C
Dew Point: -17.8 °C 9.9 °C 11 °C
Humidity: Humidity % 69 % 85 %
Wind Speed: 0 km/h 3.7 km/h 12.6 km/h
Wind Gust: 0 km/h - -
Wind:- - NNW
Pressure: 0 hPa 1010.4 hPa -
Precipitation: 0 mm    
Historical Graphs
 
 
Ararat weather Find more about Weather in Ararat, AU


 



 


Tabular Data for October 18, 2018
Time Temperature Dew Point Pressure Wind Wind Speed Wind Gust Humidity Rainfall Rate (Hourly)
-17.8 °C -17.8 °C 0 hPa Calm     Humidity % 0 mm
00:04 12.1 °C 10.9 °C 1011.4 hPa NNW 18.5 km/h 11.1 km/h 93 % 0 mm
00:09 12.1 °C 10.9 °C 1011.4 hPa North 11.1 km/h 8.4 km/h 93 % 0 mm
00:14 12.1 °C 10.9 °C 1011.4 hPa NNW 13 km/h 6.6 km/h 93 % 0 mm
00:19 12.1 °C 10.9 °C 1011.4 hPa NNW 13 km/h 9.8 km/h 93 % 0 mm
00:24 12.1 °C 10.9 °C 1011.4 hPa NNW 9.3 km/h 7.9 km/h 93 % 0 mm
00:29 12.1 °C 10.9 °C 1011.4 hPa NNW 11.1 km/h 6 km/h 93 % 0 mm
00:34 12.1 °C 10.9 °C 1011.4 hPa North 5.6 km/h 4.7 km/h 93 % 0 mm
00:39 12 °C 10.9 °C 1011.4 hPa North 13 km/h 9.7 km/h 93 % 0 mm
00:44 12 °C 10.9 °C 1011.4 hPa NNW 11.1 km/h 6.4 km/h 93 % 0 mm
00:49 12 °C 10.9 °C 1011.4 hPa NNW 7.4 km/h 3.9 km/h 93 % 0 mm
00:54 11.9 °C 10.8 °C 1011.4 hPa North 11.1 km/h 7.4 km/h 93 % 0 mm
00:59 11.9 °C 10.8 °C 1011.4 hPa NNW 13 km/h 9.2 km/h 93 % 0 mm
01:04 11.9 °C 10.8 °C 1011.4 hPa NW 16.7 km/h 7.7 km/h 93 % 0 mm
01:09 11.9 °C 10.8 °C 1011.4 hPa NW 16.7 km/h 13 km/h 93 % 0 mm
01:14 11.9 °C 10.8 °C 1011.4 hPa NW 16.7 km/h 7.2 km/h 93 % 0 mm
01:19 11.9 °C 10.8 °C 1011.4 hPa NW 16.7 km/h 11.9 km/h 93 % 0 mm
01:24 11.9 °C 10.8 °C 1011.4 hPa NW 13 km/h 9.2 km/h 93 % 0 mm
01:29 11.9 °C 10.8 °C 1011.4 hPa NW 11.1 km/h 6.8 km/h 93 % 0 mm
01:34 11.9 °C 10.8 °C 1011.4 hPa North 8 km/h 6.1 km/h 93 % 0 mm
01:39 11.8 °C 10.7 °C 1011.4 hPa NNW 6.4 km/h 4.2 km/h 93 % 0 mm
01:44 11.8 °C 10.7 °C 1011.4 hPa NNW 6.4 km/h 5.8 km/h 93 % 0 mm
01:49 11.8 °C 10.7 °C 1011.4 hPa NNW 9.7 km/h 8.4 km/h 93 % 0 mm
01:54 11.8 °C 10.7 °C 1011.1 hPa NNW 9.3 km/h 6.6 km/h 93 % 0 mm
01:59 11.8 °C 10.7 °C 1011.1 hPa NNW 11.1 km/h 6 km/h 93 % 0 mm
02:04 11.8 °C 10.7 °C 1011.1 hPa NW 13 km/h 10.5 km/h 93 % 0 mm
02:09 11.8 °C 10.7 °C 1011.1 hPa NW 13 km/h 11.3 km/h 93 % 0 mm
02:14 11.7 °C 10.6 °C 1011.1 hPa NW 11.1 km/h 10 km/h 93 % 0 mm
02:19 11.7 °C 10.6 °C 1010.7 hPa North 11.1 km/h 8.2 km/h 93 % 0 mm
02:24 11.7 °C 10.6 °C 1010.7 hPa NW 9.3 km/h 7.6 km/h 93 % 0 mm
02:29 11.7 °C 10.6 °C 1010.7 hPa NW 6.4 km/h 5.8 km/h 93 % 0 mm
02:34 11.7 °C 10.6 °C 1010.7 hPa NW 14.8 km/h 9.8 km/h 93 % 0 mm
02:39 11.7 °C 10.6 °C 1010.7 hPa NW 8 km/h 5.6 km/h 93 % 0 mm
02:44 11.7 °C 10.4 °C 1010.7 hPa NW 11.1 km/h 5.5 km/h 92 % 0 mm
02:49 11.7 °C 10.6 °C 1010.7 hPa NW 9.3 km/h 4.7 km/h 93 % 0 mm
02:54 11.7 °C 10.4 °C 1010.7 hPa North 9.3 km/h 5.6 km/h 92 % 0 mm
02:59 11.6 °C 10.3 °C 1010.7 hPa NW 11.1 km/h 7.6 km/h 92 % 0 mm
03:04 11.6 °C 10.3 °C 1010.7 hPa North 11.1 km/h 4.2 km/h 92 % 0 mm
03:09 11.5 °C 10.2 °C 1010.7 hPa NW 12.9 km/h 6.4 km/h 92 % 0 mm
03:14 11.5 °C 10.4 °C 1010.7 hPa NW 14.8 km/h 8.4 km/h 93 % 0 mm
03:19 11.5 °C 10.4 °C 1010.7 hPa NW 11.3 km/h 8.7 km/h 93 % 0 mm
03:24 11.4 °C 10.3 °C 1010.7 hPa NW 7.4 km/h 5.6 km/h 93 % 0 mm
03:29 11.4 °C 10.3 °C 1010.7 hPa NW 5.6 km/h 5.3 km/h 93 % 0 mm
03:34 11.4 °C 10.3 °C 1010.7 hPa NW 12.9 km/h 6.8 km/h 93 % 0 mm
03:39 11.3 °C 10.2 °C 1010.7 hPa North 7.4 km/h 6.1 km/h 93 % 0 mm
03:44 11.3 °C 10.2 °C 1010.7 hPa NW 9.3 km/h 9.3 km/h 93 % 0 mm
03:49 11.3 °C 10.2 °C 1010.7 hPa NW 7.4 km/h 7.9 km/h 93 % 0 mm
03:54 11.3 °C 10.2 °C 1010.7 hPa NW 7.4 km/h 6.8 km/h 93 % 0 mm
03:59 11.2 °C 10.1 °C 1010.4 hPa NNW 11.1 km/h 6.6 km/h 93 % 0 mm
04:04 11.2 °C 10.1 °C 1010.4 hPa NNW 5.6 km/h 5.6 km/h 93 % 0 mm
04:09 11.1 °C 10 °C 1010.4 hPa North 7.4 km/h 7.4 km/h 93 % 0 mm
04:14 11.1 °C 9.9 °C 1010.4 hPa NNW 13 km/h 9.7 km/h 93 % 0 mm
04:19 11.1 °C 9.9 °C 1010.4 hPa North 13 km/h 8.2 km/h 93 % 0 mm
04:24 11.1 °C 10.1 °C 1010.4 hPa NNW 7.4 km/h 4.5 km/h 94 % 0 mm
04:29 11.1 °C 10.1 °C 1010.4 hPa NNW 9.7 km/h 7.1 km/h 94 % 0 mm
04:34 11.1 °C 10.1 °C 1010.4 hPa North 9.3 km/h 5.1 km/h 94 % 0 mm
04:39 11 °C 10.1 °C 1010.7 hPa NNW 6.4 km/h 4.3 km/h 94 % 0 mm
04:44 11 °C 10.1 °C 1010.7 hPa NNW 16.7 km/h 9 km/h 94 % 0 mm
04:49 10.9 °C 10 °C 1010.7 hPa North 11.1 km/h 9.7 km/h 94 % 0 mm
04:54 10.9 °C 9.9 °C 1011.1 hPa North 11.3 km/h 8.9 km/h 94 % 0 mm
04:59 10.9 °C 10.1 °C 1011.1 hPa North 5.6 km/h 6 km/h 95 % 0 mm
05:04 10.9 °C 10.2 °C 1011.1 hPa North 12.9 km/h 6.4 km/h 95 % 0 mm
05:09 11 °C 10.2 °C 1011.1 hPa North 14.8 km/h 7.1 km/h 95 % 0 mm
05:14 11.1 °C 10.3 °C 1011.1 hPa North 11.3 km/h 8.4 km/h 95 % 0 mm
05:19 11.1 °C 10.3 °C 1011.1 hPa North 13 km/h 7.2 km/h 95 % 0 mm
05:24 11.1 °C 10.3 °C 1011.1 hPa North 13 km/h 9.2 km/h 95 % 0 mm
05:29 11 °C 10.2 °C 1011.1 hPa North 11.1 km/h 9.2 km/h 95 % 0 mm
05:34 11 °C 10.2 °C 1011.1 hPa North 12.9 km/h 9.3 km/h 95 % 0 mm
05:39 11 °C 10.2 °C 1011.1 hPa North 9.7 km/h 7.9 km/h 95 % 0 mm
05:44 11.1 °C 10.3 °C 1011.1 hPa North 5.6 km/h 4.5 km/h 95 % 0 mm
05:49 11.1 °C 10.3 °C 1011.1 hPa North 7.4 km/h 7.4 km/h 95 % 0 mm
05:54 11.1 °C 10.3 °C 1011.4 hPa North 13 km/h 8 km/h 95 % 0 mm
05:59 11.1 °C 10.3 °C 1011.4 hPa North 9.7 km/h 4.7 km/h 95 % 0 mm
06:04 11.1 °C 10.3 °C 1011.4 hPa North 9.7 km/h 6.1 km/h 95 % 0 mm
06:09 11.1 °C 10.3 °C 1011.4 hPa North 9.7 km/h 7.2 km/h 95 % 0 mm
06:14 11.2 °C 10.4 °C 1011.4 hPa North 11.1 km/h 6.9 km/h 95 % 0 mm
06:19 11.2 °C 10.4 °C 1011.4 hPa North 11.3 km/h 7.1 km/h 95 % 0 mm
06:24 11.2 °C 10.4 °C 1011.4 hPa North 13 km/h 7.7 km/h 95 % 0 mm
06:29 11.2 °C 10.4 °C 1011.4 hPa North 7.4 km/h 7.1 km/h 95 % 0 mm
06:34 11.2 °C 10.4 °C 1011.7 hPa North 8 km/h 7.1 km/h 95 % 0 mm
06:39 11.2 °C 10.4 °C 1011.7 hPa North 11.1 km/h 5.1 km/h 95 % 0 mm
06:44 11.3 °C 10.5 °C 1011.7 hPa North 9.3 km/h 7.4 km/h 95 % 0 mm
06:49 11.3 °C 10.5 °C 1011.7 hPa North 14.8 km/h 7.1 km/h 95 % 0 mm
06:54 11.3 °C 10.5 °C 1011.7 hPa North 12.9 km/h 8.2 km/h 95 % 0 mm
06:58 11.3 °C 10.6 °C 1012.1 hPa North 9.3 km/h 8.9 km/h 95 % 0 mm
06:58 11.3 °C 10.6 °C 1012.1 hPa North 9.3 km/h 9.2 km/h 95 % 0 mm
06:58 11.3 °C 10.6 °C 1012.1 hPa North 9.7 km/h 9.5 km/h 95 % 0 mm
06:58 11.3 °C 10.6 °C 1012.1 hPa North 9.7 km/h 9.7 km/h 95 % 0 mm
06:59 11.3 °C 10.6 °C 1012.1 hPa North 14.8 km/h 9 km/h 95 % 0 mm
07:04 11.3 °C 10.6 °C 1012.1 hPa North 11.1 km/h 7.9 km/h 95 % 0 mm
07:08 11.4 °C 10.6 °C 1012.1 hPa North 14.8 km/h 10 km/h 95 % 0 mm
07:14 11.4 °C 10.6 °C 1012.1 hPa NNW 14.8 km/h 8.5 km/h 95 % 0 mm
07:19 11.4 °C 10.6 °C 1012.1 hPa NNW 11.3 km/h 8 km/h 95 % 0 mm
07:24 11.4 °C 10.6 °C 1012.4 hPa NNW 9.3 km/h 6.4 km/h 95 % 0 mm
07:29 11.4 °C 10.7 °C 1012.4 hPa NNW 11.1 km/h 5.1 km/h 95 % 0 mm
07:33 11.4 °C 10.7 °C 1012.4 hPa North 14.8 km/h 7.4 km/h 95 % 0 mm
07:40 11.5 °C 10.7 °C 1012.4 hPa NNW 4.8 km/h 9.7 km/h 95 % 0 mm
07:48 11.6 °C 10.8 °C 1012.8 hPa NNW 9.3 km/h 5.6 km/h 95 % 0 mm
07:57 11.6 °C 10.8 °C 1012.8 hPa NNW 9.3 km/h 5.6 km/h 95 % 0 mm
08:06 11.6 °C 10.8 °C 1012.8 hPa NNW 12.9 km/h 9.3 km/h 95 % 0 mm
08:16 11.7 °C 10.9 °C 1012.8 hPa NNW 13 km/h 7.1 km/h 95 % 0 mm
08:24 11.9 °C 11.1 °C 1012.8 hPa North 13 km/h 7.6 km/h 95 % 0 mm
08:33 12.1 °C 11.3 °C 1012.8 hPa North 13 km/h 7.9 km/h 95 % 0 mm
08:42 12.2 °C 11.2 °C 1012.8 hPa North 7.4 km/h 6.1 km/h 94 % 0 mm
08:49 12.2 °C 11.2 °C 1013.1 hPa North 13 km/h 8.2 km/h 94 % 0 mm
08:54 12.2 °C 11.3 °C 1013.1 hPa North 12.9 km/h 9.7 km/h 94 % 0 mm
08:59 12.3 °C 11.2 °C 1013.1 hPa NNW 13 km/h 11.4 km/h 93 % 0 mm
09:04 12.3 °C 11.2 °C 1013.4 hPa NNW 18.5 km/h 10.3 km/h 93 % 0 mm
09:09 12.4 °C 11.3 °C 1013.4 hPa NNW 16.7 km/h 11.9 km/h 93 % 0 mm
09:14 12.5 °C 11.2 °C 1013.4 hPa NNW 12.9 km/h 7.6 km/h 92 % 0 mm
09:19 12.6 °C 11.3 °C 1013.4 hPa NNW 16.7 km/h 10.6 km/h 92 % 0 mm
09:24 12.9 °C 11.4 °C 1013.4 hPa NNW 16.7 km/h 9.8 km/h 91 % 0 mm
09:29 13 °C 11.4 °C 1013.4 hPa NNW 14.5 km/h 12.9 km/h 90 % 0 mm
09:34 13.2 °C 11.4 °C 1013.4 hPa NNW 14.8 km/h 10.1 km/h 89 % 0 mm
09:39 13.1 °C 11.2 °C 1013.4 hPa North 18.5 km/h 15.3 km/h 88 % 0 mm
09:44 13.1 °C 11.2 °C 1013.4 hPa NW 16.1 km/h 9.2 km/h 88 % 0 mm
09:49 13.1 °C 11.2 °C 1013.8 hPa North 11.3 km/h 11.7 km/h 88 % 0 mm
09:54 13.2 °C 11.1 °C 1013.8 hPa North 16.7 km/h 14.5 km/h 87 % 0 mm
09:59 13.2 °C 11.1 °C 1013.8 hPa NNW 13 km/h 8 km/h 87 % 0 mm
10:04 13.2 °C 10.9 °C 1013.8 hPa North 14.8 km/h 9 km/h 86 % 0 mm
10:09 13.1 °C 10.8 °C 1013.8 hPa North 16.7 km/h 10.6 km/h 86 % 0 mm
10:14 13 °C 10.7 °C 1013.8 hPa NNW 13 km/h 9.7 km/h 86 % 0 mm
10:19 13 °C 10.9 °C 1013.8 hPa North 16.7 km/h 8.9 km/h 87 % 0 mm
10:24 13 °C 10.9 °C 1013.8 hPa NNW 11.1 km/h 10.5 km/h 87 % 0 mm
10:29 12.9 °C 10.8 °C 1013.8 hPa NNW 16.7 km/h 10.3 km/h 87 % 0 mm
10:34 12.9 °C 10.8 °C 1013.8 hPa NNW 16.7 km/h 9.2 km/h 87 % 0 mm
10:39 12.9 °C 10.9 °C 1013.8 hPa NNW 11.1 km/h 9.8 km/h 88 % 0 mm
10:44 12.9 °C 10.9 °C 1013.8 hPa NNW 14.8 km/h 8.5 km/h 88 % 0 mm
10:49 12.9 °C 11 °C 1013.8 hPa NNW 11.1 km/h 7.7 km/h 88 % 0 mm
10:54 13.1 °C 11.2 °C 1013.8 hPa North 9.7 km/h 7.2 km/h 88 % 0 mm
10:59 13.2 °C 11.2 °C 1013.8 hPa North 13 km/h 8 km/h 88 % 0 mm
11:04 13.3 °C 11.3 °C 1013.8 hPa North 11.3 km/h 8.9 km/h 88 % 0 mm
11:09 13.3 °C 11.2 °C 1014.1 hPa North 13 km/h 10 km/h 87 % 0 mm
11:14 13.3 °C 11.2 °C 1014.1 hPa NW 16.7 km/h 11.4 km/h 87 % 0 mm
11:19 13.4 °C 11.1 °C 1014.1 hPa NNW 18.5 km/h 7.7 km/h 86 % 0 mm
11:24 13.4 °C 11.3 °C 1014.1 hPa NNW 11.1 km/h 10.1 km/h 87 % 0 mm
11:29 13.4 °C 11.3 °C 1013.8 hPa NNW 14.8 km/h 10.8 km/h 87 % 0 mm
11:34 13.4 °C 11.3 °C 1013.8 hPa NNW 5.6 km/h 4 km/h 87 % 0 mm
11:39 13.6 °C 11.4 °C 1013.8 hPa North 18.5 km/h 10.6 km/h 87 % 0 mm
11:44 13.6 °C 11.4 °C 1013.8 hPa NNW 14.8 km/h 11.7 km/h 87 % 0 mm
11:49 13.7 °C 11.4 °C 1013.8 hPa North 13 km/h 9.7 km/h 86 % 0 mm
11:54 13.7 °C 11.4 °C 1013.8 hPa North 14.8 km/h 8.9 km/h 86 % 0 mm
11:59 13.8 °C 11.3 °C 1013.8 hPa North 14.5 km/h 10.9 km/h 85 % 0 mm
12:04 13.8 °C 11.3 °C 1013.8 hPa North 20.4 km/h 10 km/h 85 % 0 mm
12:09 13.9 °C 11.4 °C 1013.8 hPa North 11.1 km/h 8.2 km/h 85 % 0 mm
12:14 13.9 °C 11.3 °C 1013.8 hPa NNW 18.5 km/h 12.6 km/h 84 % 0 mm
12:19 14 °C 11.2 °C 1013.8 hPa NNW 13 km/h 9.7 km/h 83 % 0 mm
12:24 14 °C 11.2 °C 1013.8 hPa North 18.5 km/h 11.9 km/h 83 % 0 mm
12:29 14.2 °C 11.3 °C 1013.8 hPa North 13 km/h 11.4 km/h 83 % 0 mm
12:34 14.3 °C 11.5 °C 1013.8 hPa NNW 11.3 km/h 11.3 km/h 83 % 0 mm
12:39 14.6 °C 11.6 °C 1013.8 hPa NW 18.5 km/h 14.8 km/h 82 % 0 mm
12:44 14.6 °C 11.3 °C 1013.8 hPa WNW 22.2 km/h 16.7 km/h 81 % 0 mm
12:49 14.6 °C 11.3 °C 1013.8 hPa NW 18.5 km/h 15.8 km/h 81 % 0 mm
12:54 14.8 °C 11.6 °C 1013.8 hPa North 18.5 km/h 11.9 km/h 81 % 0 mm
12:59 14.9 °C 11.7 °C 1013.8 hPa NW 18.5 km/h 11.4 km/h 81 % 0 mm
13:04 14.9 °C 11.7 °C 1013.8 hPa NW 14.5 km/h 10 km/h 81 % 0 mm
13:09 14.7 °C 11.4 °C 1013.8 hPa North 20.4 km/h 10.8 km/h 81 % 0 mm
13:14 14.6 °C 11.6 °C 1013.4 hPa North 18.5 km/h 13.7 km/h 82 % 0 mm
13:19 14.6 °C 11.8 °C 1013.4 hPa North 12.9 km/h 8 km/h 83 % 0 mm
13:24 14.7 °C 11.6 °C 1013.4 hPa NNW 13 km/h 7.9 km/h 82 % 0 mm
13:29 14.9 °C 11.7 °C 1013.4 hPa NNW 14.8 km/h 10.8 km/h 81 % 0 mm
13:34 14.9 °C 11.3 °C 1013.4 hPa NNW 18.5 km/h 10 km/h 79 % 0 mm
13:39 14.9 °C 11.5 °C 1013.4 hPa North 16.7 km/h 15.8 km/h 80 % 0 mm
13:44 14.7 °C 11.4 °C 1013.4 hPa North 14.5 km/h 11.4 km/h 81 % 0 mm
13:49 14.6 °C 11.6 °C 1013.4 hPa NNW 12.9 km/h 8.2 km/h 82 % 0 mm
13:54 14.8 °C 11.8 °C 1013.4 hPa North 13 km/h 7.7 km/h 82 % 0 mm
13:59 15.1 °C 11.7 °C 1013.4 hPa NW 14.8 km/h 10.8 km/h 80 % 0 mm
14:04 15.1 °C 11.5 °C 1013.4 hPa NNW 18.5 km/h 16.4 km/h 79 % 0 mm
14:09 15.2 °C 11.6 °C 1013.4 hPa NW 16.7 km/h 12.7 km/h 79 % 0 mm
14:14 15.2 °C 11.4 °C 1013.4 hPa WNW 24.1 km/h 13.4 km/h 78 % 0 mm
14:19 15.3 °C 11.5 °C 1013.4 hPa WNW 24.1 km/h 14.3 km/h 78 % 0 mm
14:24 15.6 °C 11.6 °C 1013.4 hPa NNW 18.5 km/h 11.9 km/h 77 % 0 mm
14:29 15.9 °C 12.1 °C 1013.4 hPa WNW 18.5 km/h 8.4 km/h 78 % 0 mm
14:34 15.8 °C 11.6 °C 1013.4 hPa NW 19.3 km/h 17.2 km/h 76 % 0 mm
14:39 15.9 °C 11.8 °C 1013.4 hPa NW 17.7 km/h 11.3 km/h 77 % 0 mm
14:44 15.8 °C 11.6 °C 1013.4 hPa NW 27.8 km/h 19.6 km/h 76 % 0 mm
14:49 15.6 °C 11.4 °C 1013.4 hPa NW 13 km/h 9 km/h 76 % 0 mm
14:54 15.7 °C 11.5 °C 1013.4 hPa WNW 22.5 km/h 14.8 km/h 76 % 0 mm
14:59 15.6 °C 11.6 °C 1013.4 hPa NW 14.8 km/h 10 km/h 77 % 0 mm
15:04 15.6 °C 11.6 °C 1013.4 hPa NW 18.5 km/h 8.5 km/h 77 % 0 mm
15:09 15.6 °C 11.6 °C 1013.4 hPa NNW 11.1 km/h 10.9 km/h 77 % 0 mm
15:14 15.7 °C 11.7 °C 1013.4 hPa NW 16.7 km/h 14.5 km/h 77 % 0 mm
15:19 15.8 °C 11.6 °C 1013.4 hPa WNW 18.5 km/h 13 km/h 76 % 0 mm
15:24 16.1 °C 12.1 °C 1013.1 hPa NW 18.5 km/h 11.7 km/h 77 % 0 mm
15:29 16.1 °C 11.7 °C 1013.1 hPa NNW 18.5 km/h 12.4 km/h 75 % 0 mm
15:34 16 °C 11.4 °C 1013.1 hPa NNW 20.4 km/h 10.3 km/h 74 % 0 mm
15:39 15.9 °C 11.5 °C 1013.1 hPa North 20.9 km/h 11.7 km/h 75 % 0 mm
15:44 15.8 °C 11.3 °C 1013.1 hPa NW 18.5 km/h 10.3 km/h 75 % 0 mm
15:49 15.8 °C 11.4 °C 1013.1 hPa NW 18.5 km/h 10.6 km/h 75 % 0 mm
15:54 15.9 °C 11.5 °C 1013.1 hPa NW 14.8 km/h 10.1 km/h 75 % 0 mm
15:59 16 °C 11.4 °C 1013.1 hPa North 16.7 km/h 11.6 km/h 74 % 0 mm
16:04 16.2 °C 11.6 °C 1013.1 hPa NW 20.4 km/h 13.8 km/h 74 % 0 mm
16:09 16.9 °C 12.3 °C 1012.8 hPa WNW 22.2 km/h 14.2 km/h 74 % 0 mm
16:14 17.5 °C 11.7 °C 1013.1 hPa West 25.9 km/h 17.9 km/h 69 % 0 mm
16:19 17.3 °C 11.6 °C 1012.8 hPa NW 22.2 km/h 7.2 km/h 69 % 0 mm
16:24 17.1 °C 11.6 °C 1012.8 hPa WNW 19.3 km/h 16.6 km/h 70 % 0 mm
16:29 16.9 °C 11.4 °C 1013.1 hPa WNW 24.1 km/h 15.1 km/h 70 % 0 mm
16:34 17 °C 11.7 °C 1013.1 hPa WNW 18.5 km/h 11.6 km/h 71 % 0 mm
16:39 17.1 °C 11.3 °C 1012.8 hPa WNW 18.5 km/h 12.7 km/h 69 % 0 mm
16:44 16.8 °C 11.3 °C 1012.8 hPa NW 20.4 km/h 12.1 km/h 70 % 0 mm
16:49 16.7 °C 11.7 °C 1012.8 hPa NW 17.7 km/h 9.8 km/h 72 % 0 mm
16:54 16.7 °C 11.8 °C 1013.1 hPa North 16.7 km/h 8.7 km/h 73 % 0 mm
16:59 16.7 °C 11.8 °C 1013.1 hPa North 20.4 km/h 11.6 km/h 73 % 0 mm
17:04 16.7 °C 11.6 °C 1013.1 hPa NW 18.5 km/h 13.7 km/h 72 % 0 mm
17:09 16.4 °C 11.6 °C 1013.1 hPa NW 24.1 km/h 17.2 km/h 73 % 0 mm
17:14 16.4 °C 11.6 °C 1013.1 hPa North 24.1 km/h 11.9 km/h 73 % 0 mm
17:19 16.2 °C 11.4 °C 1013.4 hPa NW 18.5 km/h 12.2 km/h 73 % 0 mm
17:24 16.3 °C 11.6 °C 1013.4 hPa NW 13 km/h 9 km/h 74 % 0 mm
17:29 16.8 °C 11.9 °C 1013.4 hPa NW 9.3 km/h 9 km/h 73 % 0 mm
17:34 16.8 °C 11.8 °C 1013.4 hPa NNW 13 km/h 10.5 km/h 72 % 0 mm
17:39 16.6 °C 11.5 °C 1013.4 hPa NNW 16.7 km/h 12.1 km/h 72 % 0 mm
17:44 16.4 °C 11.6 °C 1013.4 hPa NNW 16.7 km/h 10.3 km/h 73 % 0 mm
17:49 16.6 °C 11.6 °C 1013.4 hPa NNW 16.7 km/h 13.7 km/h 72 % 0 mm
17:54 16.5 °C 11.4 °C 1013.4 hPa NNW 16.7 km/h 11.9 km/h 72 % 0 mm
17:59 16.4 °C 11.3 °C 1013.4 hPa NNW 16.7 km/h 7.2 km/h 72 % 0 mm
18:04 16.2 °C 11.3 °C 1013.4 hPa NW 16.7 km/h 12.2 km/h 73 % 0 mm
18:09 16.2 °C 11.5 °C 1013.4 hPa NW 5.6 km/h 3.9 km/h 74 % 0 mm
18:14 16.2 °C 11.3 °C 1013.4 hPa NW 9.3 km/h 8.5 km/h 73 % 0 mm
18:19 16.1 °C 11.1 °C 1013.4 hPa NW 18.5 km/h 6.9 km/h 72 % 0 mm
18:24 16 °C 10.9 °C 1013.8 hPa NW 16.7 km/h 7.4 km/h 72 % 0 mm
18:29 16 °C 11.2 °C 1013.4 hPa NW 11.1 km/h 8.4 km/h 73 % 0 mm
18:34 16 °C 11.2 °C 1013.8 hPa NW 9.3 km/h 6.6 km/h 73 % 0 mm
18:39 16.1 °C 11.3 °C 1013.8 hPa NW 9.7 km/h 7.2 km/h 73 % 0 mm
18:44 16.1 °C 11.3 °C 1013.8 hPa NW 14.8 km/h 7.7 km/h 73 % 0 mm
18:49 16.1 °C 11.4 °C 1013.8 hPa NW 9.3 km/h 5.8 km/h 74 % 0 mm
18:54 15.9 °C 11.3 °C 1013.8 hPa NW 16.7 km/h 11.6 km/h 74 % 0 mm
18:59 15.7 °C 11.3 °C 1013.8 hPa NW 5.6 km/h 5.1 km/h 75 % 0 mm
19:04 15.6 °C 11.4 °C 1013.8 hPa NW 13 km/h 8.2 km/h 76 % 0 mm
19:09 15.6 °C 11.3 °C 1014.1 hPa NW 13 km/h 8.9 km/h 76 % 0 mm
19:14 15.4 °C 11.2 °C 1014.1 hPa North 13 km/h 9.3 km/h 76 % 0 mm
19:19 15.4 °C 11.2 °C 1014.1 hPa NNW 13 km/h 6.4 km/h 76 % 0 mm
19:24 15.3 °C 11.3 °C 1014.1 hPa North 13 km/h 10 km/h 77 % 0 mm
19:29 15.2 °C 11.2 °C 1014.1 hPa NNW 13 km/h 6.4 km/h 77 % 0 mm
19:34 15.2 °C 11.2 °C 1014.1 hPa NNW 11.1 km/h 5.5 km/h 77 % 0 mm
19:39 15.1 °C 11.1 °C 1014.4 hPa NNW 9.3 km/h 9 km/h 77 % 0 mm
19:44 15.1 °C 11.3 °C 1014.4 hPa NNW 11.1 km/h 9.8 km/h 78 % 0 mm
19:49 15.1 °C 11.2 °C 1014.4 hPa NNW 13 km/h 6.3 km/h 78 % 0 mm
19:54 15.1 °C 11.2 °C 1014.4 hPa NNW 9.3 km/h 6 km/h 78 % 0 mm
19:59 15.1 °C 11.2 °C 1014.4 hPa NNW 9.3 km/h 5 km/h 78 % 0 mm
20:04 15 °C 11.4 °C 1014.4 hPa NNW 8 km/h 5.6 km/h 79 % 0 mm
20:09 15 °C 11.4 °C 1014.8 hPa NNW 7.4 km/h 3.5 km/h 79 % 0 mm
20:14 15 °C 11.4 °C 1014.8 hPa NNW 5.6 km/h 4.5 km/h 79 % 0 mm
20:19 15 °C 11.4 °C 1014.8 hPa NNW 6.4 km/h 5.5 km/h 79 % 0 mm
20:24 14.9 °C 11.5 °C 1014.8 hPa North 8 km/h 5.6 km/h 80 % 0 mm
20:29 14.9 °C 11.5 °C 1014.8 hPa NNW 6.4 km/h 2.9 km/h 80 % 0 mm
20:34 14.9 °C 11.5 °C 1015.1 hPa NNW 7.4 km/h 4 km/h 80 % 0 mm
20:39 14.9 °C 11.5 °C 1015.1 hPa NNW 8 km/h 4.3 km/h 80 % 0 mm
20:44 14.9 °C 11.5 °C 1015.1 hPa NNW 6.4 km/h 5 km/h 80 % 0 mm
20:49 14.9 °C 11.4 °C 1015.1 hPa NNW 8 km/h 5.1 km/h 80 % 0 mm
20:54 14.9 °C 11.4 °C 1015.1 hPa NNW 7.4 km/h 5.6 km/h 80 % 0 mm
20:59 14.9 °C 11.4 °C 1015.5 hPa NNW 9.3 km/h 6.4 km/h 80 % 0 mm
21:04 14.9 °C 11.4 °C 1015.5 hPa NNW 8 km/h 6.9 km/h 80 % 0 mm
21:09 14.8 °C 11.4 °C 1015.5 hPa NNW 5.6 km/h 4.7 km/h 80 % 0 mm
21:14 14.8 °C 11.3 °C 1015.5 hPa NNW 9.3 km/h 6.4 km/h 80 % 0 mm
21:19 14.8 °C 11.3 °C 1015.5 hPa NNW 7.4 km/h 5.8 km/h 80 % 0 mm
21:24 14.8 °C 11.3 °C 1015.5 hPa NNW 7.4 km/h 5 km/h 80 % 0 mm
21:29 14.8 °C 11.3 °C 1015.5 hPa NNW 7.4 km/h 4.2 km/h 80 % 0 mm
21:34 14.8 °C 11.3 °C 1015.8 hPa NNW 7.4 km/h 5 km/h 80 % 0 mm
21:39 14.7 °C 11.3 °C 1015.5 hPa NNW 7.4 km/h 4.8 km/h 80 % 0 mm
21:44 14.7 °C 11.3 °C 1015.5 hPa NNW 5.6 km/h 4.7 km/h 80 % 0 mm
21:49 14.7 °C 11.3 °C 1015.5 hPa NNW 7.4 km/h 4 km/h 80 % 0 mm
21:54 14.7 °C 11.3 °C 1015.5 hPa NNW 9.3 km/h 7.1 km/h 80 % 0 mm
21:59 14.7 °C 11.3 °C 1015.8 hPa NNW 7.4 km/h 5.6 km/h 80 % 0 mm
22:04 14.7 °C 11.4 °C 1015.5 hPa NNW 7.4 km/h 5.8 km/h 81 % 0 mm
22:09 14.6 °C 11.4 °C 1015.5 hPa NNW 9.3 km/h 6.3 km/h 81 % 0 mm
22:14 14.6 °C 11.3 °C 1015.5 hPa NNW 5.6 km/h 4.8 km/h 81 % 0 mm
22:19 14.6 °C 11.3 °C 1015.5 hPa NNW 9.3 km/h 4 km/h 81 % 0 mm
22:24 14.5 °C 11.3 °C 1015.5 hPa North 7.4 km/h 6.4 km/h 81 % 0 mm
22:29 14.4 °C 11.2 °C 1015.5 hPa NNW 11.1 km/h 6.4 km/h 81 % 0 mm
22:34 14.4 °C 11.3 °C 1015.5 hPa NNW 7.4 km/h 6.1 km/h 82 % 0 mm
22:39 14.3 °C 11.3 °C 1015.8 hPa NNW 5.6 km/h 5 km/h 82 % 0 mm
22:44 14.3 °C 11.3 °C 1015.8 hPa NNW 5.6 km/h 3.2 km/h 82 % 0 mm
22:49 14.3 °C 11.3 °C 1015.5 hPa North 5.6 km/h 2.9 km/h 82 % 0 mm
22:54 14.3 °C 11.2 °C 1015.5 hPa NNW 3.7 km/h 1.8 km/h 82 % 0 mm
22:59 14.3 °C 11.2 °C 1015.8 hPa NNW 5.6 km/h 3.9 km/h 82 % 0 mm
23:04 14.3 °C 11.4 °C 1015.5 hPa NNW 5.6 km/h 4.2 km/h 83 % 0 mm
23:09 14.3 °C 11.4 °C 1015.5 hPa NNW 5.6 km/h 4.5 km/h 83 % 0 mm
23:14 14.3 °C 11.4 °C 1015.5 hPa NNW 5.6 km/h 4.3 km/h 83 % 0 mm
23:19 14.3 °C 11.4 °C 1015.5 hPa NNW 7.4 km/h 5.1 km/h 83 % 0 mm
23:24 14.2 °C 11.4 °C 1015.5 hPa NNW 5.6 km/h 5.1 km/h 83 % 0 mm
23:29 14.2 °C 11.4 °C 1015.5 hPa NNW 3.7 km/h 3.9 km/h 83 % 0 mm
23:34 14.2 °C 11.4 °C 1015.5 hPa NNW 7.4 km/h 4.3 km/h 83 % 0 mm
23:39 14.2 °C 11.5 °C 1015.5 hPa NNW 5.6 km/h 1.3 km/h 84 % 0 mm
23:44 14.2 °C 11.5 °C 1015.1 hPa NNW 7.4 km/h 2.3 km/h 84 % 0 mm
23:49 14.1 °C 11.4 °C 1015.1 hPa NNW 8 km/h 5.5 km/h 84 % 0 mm
23:54 14.1 °C 11.4 °C 1015.1 hPa NNW 6.4 km/h 4.5 km/h 84 % 0 mm
23:59 14.1 °C 11.4 °C 1015.1 hPa NNW 7.4 km/h 5.8 km/h 84 % 0 mm
Ararat Weather
Compliments of Weather Underground - 2.25 mb
Click here to send mail.


ABOUT

Live weather data from Ararat, Victoria, Australia, 3377
Data uploaded from Cumulus every 5 minutes to Weather Underground.
This site then downloads the raw data for formatting and display.
Metric and imperial data can be displayed. Graphs and historical data available.
Includes Sun and Moon times and rain image live from BOM.

Check out Ararat Weather on Facebook, Twitter and Google +

Help support ongoing costs by checking out the ads





Follow @AraratWeather